Rechercher aéroport 
image banner adimage banner adimage banner ad
image banner ad

CL10 - Anacapa View Estates

Situé à Malibu, United States

ICAO - CL10, IATA -

Données fournies par Airmate  

Information générale

Coordonnées: N34°2'32" W118°51'12"
Élévation : 625 feet MSL.
Variation magnétique : 14° East
Voir autres Aéroports à California

Données opérationnelles

Special qualification required
Heure actuelle UTC:
Heure actuelle locale:
METAR: KNTD 251152Z AUTO 33003KT 9SM OVC008 17/14 A2997 RMK AO2 SLP149 T01720144 10172 20161 56006 VISNO N $
TAF: TAF KNTD 2507/2607 VRB06KT 9999 OVC007 QNH2991INS TEMPO 2508/2514 6000 BR OVC003 FM251400 VRB06KT 8000 BR BKN010 QNH2992INS FM251800 25009KT 9999 SCT020 BKN170 QNH2993INS FM260400 VRB06KT 9999 BKN007 QNH2987INS AUTOMATED SENSOR METWATCH 2507 TIL 2513 T15/2507Z T22/2522Z FS30176
Voir NOTAMs / SUP AIP / TFR affectant cet aéroport [VIEW]
Fréquences de communication: [VIEW]

Pistes:

Coordonnées de l'aéroport

Adresse: Malibu United States

Vue satellite de CL10